sensor_id;sensor_type;location;lat;lon;timestamp;temperature;humidity
47310;DHT22;33046;52.270;6.832;2023-10-19T00:00:44;11.60;99.90
47310;DHT22;33046;52.270;6.832;2023-10-19T00:02:51;11.60;99.90
47310;DHT22;33046;52.270;6.832;2023-10-19T00:04:59;11.60;99.90
47310;DHT22;33046;52.270;6.832;2023-10-19T00:07:06;11.60;99.90
47310;DHT22;33046;52.270;6.832;2023-10-19T00:09:12;11.60;99.90
47310;DHT22;33046;52.270;6.832;2023-10-19T00:11:19;11.60;99.90
47310;DHT22;33046;52.270;6.832;2023-10-19T00:13:26;11.50;99.90
47310;DHT22;33046;52.270;6.832;2023-10-19T00:15:34;11.50;99.90
47310;DHT22;33046;52.270;6.832;2023-10-19T00:17:40;11.50;99.90
47310;DHT22;33046;52.270;6.832;2023-10-19T00:19:47;11.50;99.90
47310;DHT22;33046;52.270;6.832;2023-10-19T00:21:55;11.50;99.90
47310;DHT22;33046;52.270;6.832;2023-10-19T00:24:02;11.60;99.90
47310;DHT22;33046;52.270;6.832;2023-10-19T00:26:09;11.50;99.90
47310;DHT22;33046;52.270;6.832;2023-10-19T00:28:19;11.50;99.90
47310;DHT22;33046;52.270;6.832;2023-10-19T00:30:26;11.50;99.90
47310;DHT22;33046;52.270;6.832;2023-10-19T00:32:33;11.50;99.90
47310;DHT22;33046;52.270;6.832;2023-10-19T00:34:40;11.50;99.90
47310;DHT22;33046;52.270;6.832;2023-10-19T00:36:47;11.60;99.90
47310;DHT22;33046;52.270;6.832;2023-10-19T00:38:55;11.50;99.90
47310;DHT22;33046;52.270;6.832;2023-10-19T00:41:03;11.50;99.90
47310;DHT22;33046;52.270;6.832;2023-10-19T00:43:12;11.60;99.90
47310;DHT22;33046;52.270;6.832;2023-10-19T00:45:19;11.50;99.90
47310;DHT22;33046;52.270;6.832;2023-10-19T00:47:25;11.50;99.90
47310;DHT22;33046;52.270;6.832;2023-10-19T00:49:33;11.60;99.90
47310;DHT22;33046;52.270;6.832;2023-10-19T00:51:44;11.60;99.90
47310;DHT22;33046;52.270;6.832;2023-10-19T00:53:51;11.60;99.90
47310;DHT22;33046;52.270;6.832;2023-10-19T00:55:59;11.60;99.90
47310;DHT22;33046;52.270;6.832;2023-10-19T00:58:06;11.60;99.90
47310;DHT22;33046;52.270;6.832;2023-10-19T01:00:14;11.60;99.90
47310;DHT22;33046;52.270;6.832;2023-10-19T01:02:21;11.60;99.90
47310;DHT22;33046;52.270;6.832;2023-10-19T01:04:28;11.60;99.90
47310;DHT22;33046;52.270;6.832;2023-10-19T01:06:34;11.60;99.90
47310;DHT22;33046;52.270;6.832;2023-10-19T01:08:41;11.60;99.90
47310;DHT22;33046;52.270;6.832;2023-10-19T01:10:48;11.60;99.90
47310;DHT22;33046;52.270;6.832;2023-10-19T01:12:57;11.60;99.90
47310;DHT22;33046;52.270;6.832;2023-10-19T01:15:06;11.60;99.90
47310;DHT22;33046;52.270;6.832;2023-10-19T01:17:13;11.60;99.90
47310;DHT22;33046;52.270;6.832;2023-10-19T01:19:19;11.60;99.90
47310;DHT22;33046;52.270;6.832;2023-10-19T01:21:26;11.60;99.90
47310;DHT22;33046;52.270;6.832;2023-10-19T01:23:34;11.60;99.90
47310;DHT22;33046;52.270;6.832;2023-10-19T01:25:45;11.60;99.90
47310;DHT22;33046;52.270;6.832;2023-10-19T01:27:53;11.60;99.90
47310;DHT22;33046;52.270;6.832;2023-10-19T01:29:59;11.60;99.90
47310;DHT22;33046;52.270;6.832;2023-10-19T01:32:07;11.70;99.90
47310;DHT22;33046;52.270;6.832;2023-10-19T01:34:13;11.60;99.90
47310;DHT22;33046;52.270;6.832;2023-10-19T01:36:20;11.70;99.90
47310;DHT22;33046;52.270;6.832;2023-10-19T01:38:27;11.60;99.90
47310;DHT22;33046;52.270;6.832;2023-10-19T01:40:35;11.60;99.90
47310;DHT22;33046;52.270;6.832;2023-10-19T01:42:42;11.60;99.90
47310;DHT22;33046;52.270;6.832;2023-10-19T01:44:49;11.60;99.90
47310;DHT22;33046;52.270;6.832;2023-10-19T01:46:56;11.70;99.90
47310;DHT22;33046;52.270;6.832;2023-10-19T01:49:04;11.70;99.90
47310;DHT22;33046;52.270;6.832;2023-10-19T01:51:11;11.70;99.90
47310;DHT22;33046;52.270;6.832;2023-10-19T01:53:18;11.70;99.90
47310;DHT22;33046;52.270;6.832;2023-10-19T01:55:25;11.70;99.90
47310;DHT22;33046;52.270;6.832;2023-10-19T01:57:33;11.70;99.90
47310;DHT22;33046;52.270;6.832;2023-10-19T01:59:40;11.70;99.90
47310;DHT22;33046;52.270;6.832;2023-10-19T02:01:47;11.70;99.90
47310;DHT22;33046;52.270;6.832;2023-10-19T02:03:54;11.80;99.90
47310;DHT22;33046;52.270;6.832;2023-10-19T02:06:02;11.80;99.90
47310;DHT22;33046;52.270;6.832;2023-10-19T02:08:09;11.80;99.90
47310;DHT22;33046;52.270;6.832;2023-10-19T02:10:16;11.80;99.90
47310;DHT22;33046;52.270;6.832;2023-10-19T02:12:23;11.70;99.90
47310;DHT22;33046;52.270;6.832;2023-10-19T02:14:32;11.70;99.90
47310;DHT22;33046;52.270;6.832;2023-10-19T02:16:38;11.70;99.90
47310;DHT22;33046;52.270;6.832;2023-10-19T02:18:45;11.70;99.90
47310;DHT22;33046;52.270;6.832;2023-10-19T02:20:52;11.70;99.90
47310;DHT22;33046;52.270;6.832;2023-10-19T02:22:59;11.80;99.90
47310;DHT22;33046;52.270;6.832;2023-10-19T02:25:06;11.80;99.90
47310;DHT22;33046;52.270;6.832;2023-10-19T02:27:14;11.80;99.90
47310;DHT22;33046;52.270;6.832;2023-10-19T02:29:25;11.80;99.90
47310;DHT22;33046;52.270;6.832;2023-10-19T02:31:33;11.80;99.90
47310;DHT22;33046;52.270;6.832;2023-10-19T02:33:40;11.80;99.90
47310;DHT22;33046;52.270;6.832;2023-10-19T02:35:47;11.80;99.90
47310;DHT22;33046;52.270;6.832;2023-10-19T02:37:54;11.90;99.90
47310;DHT22;33046;52.270;6.832;2023-10-19T02:40:02;11.80;99.90
47310;DHT22;33046;52.270;6.832;2023-10-19T02:42:09;11.90;99.90
47310;DHT22;33046;52.270;6.832;2023-10-19T02:44:17;11.90;99.90
47310;DHT22;33046;52.270;6.832;2023-10-19T02:46:24;11.90;99.90
47310;DHT22;33046;52.270;6.832;2023-10-19T02:48:33;11.90;99.90
47310;DHT22;33046;52.270;6.832;2023-10-19T02:50:39;11.90;99.90
47310;DHT22;33046;52.270;6.832;2023-10-19T02:52:47;11.90;99.90
47310;DHT22;33046;52.270;6.832;2023-10-19T02:54:54;11.90;99.90
47310;DHT22;33046;52.270;6.832;2023-10-19T02:57:01;11.90;99.90
47310;DHT22;33046;52.270;6.832;2023-10-19T02:59:09;11.90;99.90
47310;DHT22;33046;52.270;6.832;2023-10-19T03:01:18;11.90;99.90
47310;DHT22;33046;52.270;6.832;2023-10-19T03:03:25;11.90;99.90
47310;DHT22;33046;52.270;6.832;2023-10-19T03:05:33;11.90;99.90
47310;DHT22;33046;52.270;6.832;2023-10-19T03:07:41;11.90;99.90
47310;DHT22;33046;52.270;6.832;2023-10-19T03:09:48;11.90;99.90
47310;DHT22;33046;52.270;6.832;2023-10-19T03:11:55;11.90;99.90
47310;DHT22;33046;52.270;6.832;2023-10-19T03:14:02;12.00;99.90
47310;DHT22;33046;52.270;6.832;2023-10-19T03:16:09;12.00;99.90
47310;DHT22;33046;52.270;6.832;2023-10-19T03:18:16;12.00;99.90
47310;DHT22;33046;52.270;6.832;2023-10-19T03:20:23;11.90;99.90
47310;DHT22;33046;52.270;6.832;2023-10-19T03:22:31;12.00;99.90
47310;DHT22;33046;52.270;6.832;2023-10-19T03:24:38;11.90;99.90
47310;DHT22;33046;52.270;6.832;2023-10-19T03:26:44;11.90;99.90
47310;DHT22;33046;52.270;6.832;2023-10-19T03:28:51;12.00;99.90
47310;DHT22;33046;52.270;6.832;2023-10-19T03:30:58;12.00;99.90
47310;DHT22;33046;52.270;6.832;2023-10-19T03:33:07;12.00;99.90
47310;DHT22;33046;52.270;6.832;2023-10-19T03:35:14;12.00;99.90
47310;DHT22;33046;52.270;6.832;2023-10-19T03:37:21;12.00;99.90
47310;DHT22;33046;52.270;6.832;2023-10-19T03:39:29;12.00;99.90
47310;DHT22;33046;52.270;6.832;2023-10-19T03:41:36;12.00;99.90
47310;DHT22;33046;52.270;6.832;2023-10-19T03:43:43;12.00;99.90
47310;DHT22;33046;52.270;6.832;2023-10-19T03:45:51;12.00;99.90
47310;DHT22;33046;52.270;6.832;2023-10-19T03:47:58;12.00;99.90
47310;DHT22;33046;52.270;6.832;2023-10-19T03:50:05;12.00;99.90
47310;DHT22;33046;52.270;6.832;2023-10-19T03:52:13;12.00;99.90
47310;DHT22;33046;52.270;6.832;2023-10-19T03:54:20;12.10;99.90
47310;DHT22;33046;52.270;6.832;2023-10-19T03:56:28;12.00;99.90
47310;DHT22;33046;52.270;6.832;2023-10-19T03:58:35;12.10;99.90
47310;DHT22;33046;52.270;6.832;2023-10-19T04:00:42;12.10;99.90
47310;DHT22;33046;52.270;6.832;2023-10-19T04:02:49;12.10;99.90
47310;DHT22;33046;52.270;6.832;2023-10-19T04:04:56;12.10;99.90
47310;DHT22;33046;52.270;6.832;2023-10-19T04:07:03;12.10;99.90
47310;DHT22;33046;52.270;6.832;2023-10-19T04:09:10;12.10;99.90
47310;DHT22;33046;52.270;6.832;2023-10-19T04:11:17;12.10;99.90
47310;DHT22;33046;52.270;6.832;2023-10-19T04:13:25;12.10;99.90
47310;DHT22;33046;52.270;6.832;2023-10-19T04:15:32;12.10;99.90
47310;DHT22;33046;52.270;6.832;2023-10-19T04:17:39;12.10;99.90
47310;DHT22;33046;52.270;6.832;2023-10-19T04:19:45;12.20;99.90
47310;DHT22;33046;52.270;6.832;2023-10-19T04:21:52;12.20;99.90
47310;DHT22;33046;52.270;6.832;2023-10-19T04:23:59;12.20;99.90
47310;DHT22;33046;52.270;6.832;2023-10-19T04:26:06;12.20;99.90
47310;DHT22;33046;52.270;6.832;2023-10-19T04:28:13;12.20;99.90
47310;DHT22;33046;52.270;6.832;2023-10-19T04:30:21;12.20;99.90
47310;DHT22;33046;52.270;6.832;2023-10-19T04:32:28;12.30;99.90
47310;DHT22;33046;52.270;6.832;2023-10-19T04:34:35;12.30;99.90
47310;DHT22;33046;52.270;6.832;2023-10-19T04:36:42;12.30;99.90
47310;DHT22;33046;52.270;6.832;2023-10-19T04:38:49;12.30;99.90
47310;DHT22;33046;52.270;6.832;2023-10-19T04:41:03;12.30;99.90
47310;DHT22;33046;52.270;6.832;2023-10-19T04:43:10;12.30;99.90
47310;DHT22;33046;52.270;6.832;2023-10-19T04:45:17;12.30;99.90
47310;DHT22;33046;52.270;6.832;2023-10-19T04:47:26;12.30;99.90
47310;DHT22;33046;52.270;6.832;2023-10-19T04:49:32;12.40;99.90
47310;DHT22;33046;52.270;6.832;2023-10-19T04:51:39;12.40;99.90
47310;DHT22;33046;52.270;6.832;2023-10-19T04:53:46;12.40;99.90
47310;DHT22;33046;52.270;6.832;2023-10-19T04:55:53;12.40;99.90
47310;DHT22;33046;52.270;6.832;2023-10-19T04:58:00;12.40;99.90
47310;DHT22;33046;52.270;6.832;2023-10-19T05:00:07;12.40;99.90
47310;DHT22;33046;52.270;6.832;2023-10-19T05:02:14;12.40;99.90
47310;DHT22;33046;52.270;6.832;2023-10-19T05:04:22;12.50;99.90
47310;DHT22;33046;52.270;6.832;2023-10-19T05:06:29;12.50;99.90
47310;DHT22;33046;52.270;6.832;2023-10-19T05:10:43;12.50;99.90
47310;DHT22;33046;52.270;6.832;2023-10-19T05:12:50;12.50;99.90
47310;DHT22;33046;52.270;6.832;2023-10-19T05:14:57;12.50;99.90
47310;DHT22;33046;52.270;6.832;2023-10-19T05:17:04;12.60;99.90
47310;DHT22;33046;52.270;6.832;2023-10-19T05:19:11;12.50;99.90
47310;DHT22;33046;52.270;6.832;2023-10-19T05:21:19;12.60;99.90
47310;DHT22;33046;52.270;6.832;2023-10-19T05:23:27;12.60;99.90
47310;DHT22;33046;52.270;6.832;2023-10-19T05:25:34;12.60;99.90
47310;DHT22;33046;52.270;6.832;2023-10-19T05:27:41;12.60;99.90
47310;DHT22;33046;52.270;6.832;2023-10-19T05:29:49;12.60;99.90
47310;DHT22;33046;52.270;6.832;2023-10-19T05:31:55;12.60;99.90
47310;DHT22;33046;52.270;6.832;2023-10-19T05:34:02;12.60;99.90
47310;DHT22;33046;52.270;6.832;2023-10-19T05:36:09;12.60;99.90
47310;DHT22;33046;52.270;6.832;2023-10-19T05:38:17;12.70;99.90
47310;DHT22;33046;52.270;6.832;2023-10-19T05:40:24;12.70;99.90
47310;DHT22;33046;52.270;6.832;2023-10-19T05:42:31;12.70;99.90
47310;DHT22;33046;52.270;6.832;2023-10-19T05:44:38;12.70;99.90
47310;DHT22;33046;52.270;6.832;2023-10-19T05:46:45;12.70;99.90
47310;DHT22;33046;52.270;6.832;2023-10-19T05:48:52;12.70;99.90
47310;DHT22;33046;52.270;6.832;2023-10-19T05:50:58;12.70;99.90
47310;DHT22;33046;52.270;6.832;2023-10-19T05:53:05;12.70;99.90
47310;DHT22;33046;52.270;6.832;2023-10-19T05:55:14;12.70;99.90
47310;DHT22;33046;52.270;6.832;2023-10-19T05:57:21;12.70;99.90
47310;DHT22;33046;52.270;6.832;2023-10-19T05:59:27;12.70;99.90
47310;DHT22;33046;52.270;6.832;2023-10-19T06:01:34;12.70;99.90
47310;DHT22;33046;52.270;6.832;2023-10-19T06:03:41;12.80;99.90
47310;DHT22;33046;52.270;6.832;2023-10-19T06:05:48;12.70;99.90
47310;DHT22;33046;52.270;6.832;2023-10-19T06:07:55;12.80;99.90
47310;DHT22;33046;52.270;6.832;2023-10-19T06:10:02;12.80;99.90
47310;DHT22;33046;52.270;6.832;2023-10-19T06:12:10;12.80;99.90
47310;DHT22;33046;52.270;6.832;2023-10-19T06:14:17;12.80;99.90
47310;DHT22;33046;52.270;6.832;2023-10-19T06:16:24;12.80;99.90
47310;DHT22;33046;52.270;6.832;2023-10-19T06:18:31;12.80;99.90
47310;DHT22;33046;52.270;6.832;2023-10-19T06:20:43;12.80;99.90
47310;DHT22;33046;52.270;6.832;2023-10-19T06:22:50;12.90;99.90
47310;DHT22;33046;52.270;6.832;2023-10-19T06:24:57;12.90;99.90
47310;DHT22;33046;52.270;6.832;2023-10-19T06:27:04;12.90;99.90
47310;DHT22;33046;52.270;6.832;2023-10-19T06:29:12;12.90;99.90
47310;DHT22;33046;52.270;6.832;2023-10-19T06:31:19;12.90;99.90
47310;DHT22;33046;52.270;6.832;2023-10-19T06:33:26;12.90;99.90
47310;DHT22;33046;52.270;6.832;2023-10-19T06:35:33;13.00;99.90
47310;DHT22;33046;52.270;6.832;2023-10-19T06:37:40;13.00;99.90
47310;DHT22;33046;52.270;6.832;2023-10-19T06:39:47;13.00;99.90
47310;DHT22;33046;52.270;6.832;2023-10-19T06:41:54;13.00;99.90
47310;DHT22;33046;52.270;6.832;2023-10-19T06:44:01;13.00;99.90
47310;DHT22;33046;52.270;6.832;2023-10-19T06:46:09;13.00;99.90
47310;DHT22;33046;52.270;6.832;2023-10-19T06:48:16;13.10;99.90
47310;DHT22;33046;52.270;6.832;2023-10-19T06:50:23;13.10;99.90
47310;DHT22;33046;52.270;6.832;2023-10-19T06:52:30;13.10;99.90
47310;DHT22;33046;52.270;6.832;2023-10-19T06:54:37;13.10;99.90
47310;DHT22;33046;52.270;6.832;2023-10-19T06:56:44;13.10;99.90
47310;DHT22;33046;52.270;6.832;2023-10-19T06:58:51;13.10;99.90
47310;DHT22;33046;52.270;6.832;2023-10-19T07:00:58;13.10;99.90
47310;DHT22;33046;52.270;6.832;2023-10-19T07:03:06;13.10;99.90
47310;DHT22;33046;52.270;6.832;2023-10-19T07:05:13;13.20;99.90
47310;DHT22;33046;52.270;6.832;2023-10-19T07:07:20;13.20;99.90
47310;DHT22;33046;52.270;6.832;2023-10-19T07:09:27;13.20;99.90
47310;DHT22;33046;52.270;6.832;2023-10-19T07:11:34;13.20;99.90
47310;DHT22;33046;52.270;6.832;2023-10-19T07:13:40;13.20;99.90
47310;DHT22;33046;52.270;6.832;2023-10-19T07:15:47;13.30;99.90
47310;DHT22;33046;52.270;6.832;2023-10-19T07:17:54;13.30;99.90
47310;DHT22;33046;52.270;6.832;2023-10-19T07:20:04;13.30;99.90
47310;DHT22;33046;52.270;6.832;2023-10-19T07:22:11;13.40;99.90
47310;DHT22;33046;52.270;6.832;2023-10-19T07:24:17;13.40;99.90
47310;DHT22;33046;52.270;6.832;2023-10-19T07:26:24;13.40;99.90
47310;DHT22;33046;52.270;6.832;2023-10-19T07:28:31;13.40;99.90
47310;DHT22;33046;52.270;6.832;2023-10-19T07:30:39;13.50;99.90
47310;DHT22;33046;52.270;6.832;2023-10-19T07:32:46;13.50;99.90
47310;DHT22;33046;52.270;6.832;2023-10-19T07:34:52;13.50;99.90
47310;DHT22;33046;52.270;6.832;2023-10-19T07:37:01;13.50;99.90
47310;DHT22;33046;52.270;6.832;2023-10-19T07:39:07;13.50;99.90
47310;DHT22;33046;52.270;6.832;2023-10-19T07:41:14;13.50;99.90
47310;DHT22;33046;52.270;6.832;2023-10-19T07:43:21;13.60;99.90
47310;DHT22;33046;52.270;6.832;2023-10-19T07:45:29;13.60;99.90
47310;DHT22;33046;52.270;6.832;2023-10-19T07:47:36;13.60;99.90
47310;DHT22;33046;52.270;6.832;2023-10-19T07:49:42;13.70;99.90
47310;DHT22;33046;52.270;6.832;2023-10-19T07:51:49;13.70;99.90
47310;DHT22;33046;52.270;6.832;2023-10-19T07:53:57;13.70;99.90
47310;DHT22;33046;52.270;6.832;2023-10-19T07:56:04;13.70;99.90
47310;DHT22;33046;52.270;6.832;2023-10-19T07:58:11;13.80;99.90
47310;DHT22;33046;52.270;6.832;2023-10-19T08:00:20;13.80;99.90
47310;DHT22;33046;52.270;6.832;2023-10-19T08:02:27;13.80;99.90
47310;DHT22;33046;52.270;6.832;2023-10-19T08:04:34;13.80;99.90
47310;DHT22;33046;52.270;6.832;2023-10-19T08:06:41;13.80;99.90
47310;DHT22;33046;52.270;6.832;2023-10-19T08:08:48;13.90;99.90
47310;DHT22;33046;52.270;6.832;2023-10-19T08:10:56;13.90;99.90
47310;DHT22;33046;52.270;6.832;2023-10-19T08:13:03;13.90;99.90
47310;DHT22;33046;52.270;6.832;2023-10-19T08:15:10;14.00;99.90
47310;DHT22;33046;52.270;6.832;2023-10-19T08:17:17;14.00;99.90
47310;DHT22;33046;52.270;6.832;2023-10-19T08:19:24;14.10;99.90
47310;DHT22;33046;52.270;6.832;2023-10-19T08:21:31;14.10;99.90
47310;DHT22;33046;52.270;6.832;2023-10-19T08:23:38;14.10;99.90
47310;DHT22;33046;52.270;6.832;2023-10-19T08:25:44;14.20;99.90
47310;DHT22;33046;52.270;6.832;2023-10-19T08:28:02;14.20;99.90
47310;DHT22;33046;52.270;6.832;2023-10-19T08:30:09;14.30;99.90
47310;DHT22;33046;52.270;6.832;2023-10-19T08:32:16;14.30;99.90
47310;DHT22;33046;52.270;6.832;2023-10-19T08:34:23;14.30;99.90
47310;DHT22;33046;52.270;6.832;2023-10-19T08:36:30;14.40;99.90
47310;DHT22;33046;52.270;6.832;2023-10-19T08:38:36;14.40;99.90
47310;DHT22;33046;52.270;6.832;2023-10-19T08:40:43;14.50;99.90
47310;DHT22;33046;52.270;6.832;2023-10-19T08:42:50;14.50;99.90
47310;DHT22;33046;52.270;6.832;2023-10-19T08:44:58;14.60;99.90
47310;DHT22;33046;52.270;6.832;2023-10-19T08:47:05;14.60;99.90
47310;DHT22;33046;52.270;6.832;2023-10-19T08:49:13;14.70;99.90
47310;DHT22;33046;52.270;6.832;2023-10-19T08:51:20;14.70;99.90
47310;DHT22;33046;52.270;6.832;2023-10-19T08:53:27;14.70;99.90
47310;DHT22;33046;52.270;6.832;2023-10-19T08:55:34;14.70;99.90
47310;DHT22;33046;52.270;6.832;2023-10-19T08:57:44;14.80;99.90
47310;DHT22;33046;52.270;6.832;2023-10-19T08:59:52;14.80;99.90
47310;DHT22;33046;52.270;6.832;2023-10-19T09:02:03;14.90;99.90
47310;DHT22;33046;52.270;6.832;2023-10-19T09:04:10;14.90;99.90
47310;DHT22;33046;52.270;6.832;2023-10-19T09:06:17;15.00;99.90
47310;DHT22;33046;52.270;6.832;2023-10-19T09:08:24;15.00;99.90
47310;DHT22;33046;52.270;6.832;2023-10-19T09:10:31;15.10;99.90
47310;DHT22;33046;52.270;6.832;2023-10-19T09:12:38;15.10;99.90
47310;DHT22;33046;52.270;6.832;2023-10-19T09:14:45;15.20;99.90
47310;DHT22;33046;52.270;6.832;2023-10-19T09:16:55;15.20;99.90
47310;DHT22;33046;52.270;6.832;2023-10-19T09:19:04;15.20;99.90
47310;DHT22;33046;52.270;6.832;2023-10-19T09:21:12;15.20;99.90
47310;DHT22;33046;52.270;6.832;2023-10-19T09:23:22;15.30;99.90
47310;DHT22;33046;52.270;6.832;2023-10-19T09:25:29;15.30;99.90
47310;DHT22;33046;52.270;6.832;2023-10-19T09:27:36;15.40;99.90
47310;DHT22;33046;52.270;6.832;2023-10-19T09:29:43;15.40;99.90
47310;DHT22;33046;52.270;6.832;2023-10-19T09:31:50;15.40;99.90
47310;DHT22;33046;52.270;6.832;2023-10-19T09:33:58;15.40;99.90
47310;DHT22;33046;52.270;6.832;2023-10-19T09:36:07;15.40;99.90
47310;DHT22;33046;52.270;6.832;2023-10-19T09:38:16;15.40;99.90
47310;DHT22;33046;52.270;6.832;2023-10-19T09:40:23;15.50;99.90
47310;DHT22;33046;52.270;6.832;2023-10-19T09:42:30;15.50;99.90
47310;DHT22;33046;52.270;6.832;2023-10-19T09:44:41;15.50;99.90
47310;DHT22;33046;52.270;6.832;2023-10-19T09:46:49;15.50;99.90
47310;DHT22;33046;52.270;6.832;2023-10-19T09:48:57;15.60;99.90
47310;DHT22;33046;52.270;6.832;2023-10-19T09:51:04;15.60;99.90
47310;DHT22;33046;52.270;6.832;2023-10-19T09:53:13;15.60;99.90
47310;DHT22;33046;52.270;6.832;2023-10-19T09:55:24;15.60;99.90
47310;DHT22;33046;52.270;6.832;2023-10-19T09:57:37;15.70;99.90
47310;DHT22;33046;52.270;6.832;2023-10-19T09:59:53;15.70;99.90
47310;DHT22;33046;52.270;6.832;2023-10-19T10:02:06;15.70;99.90
47310;DHT22;33046;52.270;6.832;2023-10-19T10:04:30;15.70;99.90
47310;DHT22;33046;52.270;6.832;2023-10-19T10:06:58;15.80;99.90
47310;DHT22;33046;52.270;6.832;2023-10-19T10:09:07;15.80;99.90
47310;DHT22;33046;52.270;6.832;2023-10-19T10:11:18;15.90;99.90
47310;DHT22;33046;52.270;6.832;2023-10-19T10:13:37;15.90;99.90
47310;DHT22;33046;52.270;6.832;2023-10-19T10:15:48;15.90;99.90
47310;DHT22;33046;52.270;6.832;2023-10-19T10:17:55;16.00;99.90
47310;DHT22;33046;52.270;6.832;2023-10-19T10:20:30;16.00;99.90
47310;DHT22;33046;52.270;6.832;2023-10-19T10:22:36;16.00;99.90
47310;DHT22;33046;52.270;6.832;2023-10-19T10:24:45;16.00;99.90
47310;DHT22;33046;52.270;6.832;2023-10-19T10:26:58;16.10;99.90
47310;DHT22;33046;52.270;6.832;2023-10-19T10:29:11;16.10;99.90
47310;DHT22;33046;52.270;6.832;2023-10-19T10:31:21;16.10;99.90
47310;DHT22;33046;52.270;6.832;2023-10-19T10:33:38;16.10;99.90
47310;DHT22;33046;52.270;6.832;2023-10-19T10:35:54;16.20;99.90
47310;DHT22;33046;52.270;6.832;2023-10-19T10:38:01;16.20;99.90
47310;DHT22;33046;52.270;6.832;2023-10-19T10:40:10;16.20;99.90
47310;DHT22;33046;52.270;6.832;2023-10-19T10:42:17;16.30;99.90
47310;DHT22;33046;52.270;6.832;2023-10-19T10:44:37;16.30;99.90
47310;DHT22;33046;52.270;6.832;2023-10-19T10:46:44;16.40;99.90
47310;DHT22;33046;52.270;6.832;2023-10-19T10:48:52;16.40;99.90
47310;DHT22;33046;52.270;6.832;2023-10-19T10:50:59;16.40;99.90
47310;DHT22;33046;52.270;6.832;2023-10-19T10:53:06;16.30;99.90
47310;DHT22;33046;52.270;6.832;2023-10-19T10:55:14;16.40;99.90
47310;DHT22;33046;52.270;6.832;2023-10-19T10:57:21;16.40;99.90
47310;DHT22;33046;52.270;6.832;2023-10-19T10:59:28;16.40;99.90
47310;DHT22;33046;52.270;6.832;2023-10-19T11:01:34;16.40;99.90
47310;DHT22;33046;52.270;6.832;2023-10-19T11:03:42;16.40;99.90
47310;DHT22;33046;52.270;6.832;2023-10-19T11:05:48;16.50;99.90
47310;DHT22;33046;52.270;6.832;2023-10-19T11:08:06;16.60;99.90
47310;DHT22;33046;52.270;6.832;2023-10-19T11:10:26;16.70;99.90
47310;DHT22;33046;52.270;6.832;2023-10-19T11:12:33;16.80;99.90
47310;DHT22;33046;52.270;6.832;2023-10-19T11:14:51;16.90;99.90
47310;DHT22;33046;52.270;6.832;2023-10-19T11:17:11;17.00;99.90
47310;DHT22;33046;52.270;6.832;2023-10-19T11:19:18;17.00;99.90
47310;DHT22;33046;52.270;6.832;2023-10-19T11:21:25;17.10;99.90
47310;DHT22;33046;52.270;6.832;2023-10-19T11:23:39;17.20;99.90
47310;DHT22;33046;52.270;6.832;2023-10-19T11:25:57;17.20;99.90
47310;DHT22;33046;52.270;6.832;2023-10-19T11:28:16;17.30;99.90
47310;DHT22;33046;52.270;6.832;2023-10-19T11:30:24;17.30;99.90
47310;DHT22;33046;52.270;6.832;2023-10-19T11:32:36;17.30;99.90
47310;DHT22;33046;52.270;6.832;2023-10-19T11:34:43;17.40;99.90
47310;DHT22;33046;52.270;6.832;2023-10-19T11:36:52;17.40;99.90
47310;DHT22;33046;52.270;6.832;2023-10-19T11:38:59;17.40;99.90
47310;DHT22;33046;52.270;6.832;2023-10-19T11:41:08;17.40;99.90
47310;DHT22;33046;52.270;6.832;2023-10-19T11:43:14;17.40;99.90
47310;DHT22;33046;52.270;6.832;2023-10-19T11:45:22;17.40;99.90
47310;DHT22;33046;52.270;6.832;2023-10-19T11:47:28;17.30;99.90
47310;DHT22;33046;52.270;6.832;2023-10-19T11:49:38;17.40;99.90
47310;DHT22;33046;52.270;6.832;2023-10-19T11:51:45;17.40;99.90
47310;DHT22;33046;52.270;6.832;2023-10-19T11:53:51;17.40;99.90
47310;DHT22;33046;52.270;6.832;2023-10-19T11:55:59;17.40;99.90
47310;DHT22;33046;52.270;6.832;2023-10-19T11:58:07;17.40;99.90
47310;DHT22;33046;52.270;6.832;2023-10-19T12:00:14;17.50;99.90
47310;DHT22;33046;52.270;6.832;2023-10-19T12:02:21;17.50;99.90
47310;DHT22;33046;52.270;6.832;2023-10-19T12:04:28;17.50;99.90
47310;DHT22;33046;52.270;6.832;2023-10-19T12:06:34;17.50;99.90
47310;DHT22;33046;52.270;6.832;2023-10-19T12:08:41;17.50;99.90
47310;DHT22;33046;52.270;6.832;2023-10-19T12:10:50;17.40;99.90
47310;DHT22;33046;52.270;6.832;2023-10-19T12:12:57;17.40;99.90
47310;DHT22;33046;52.270;6.832;2023-10-19T12:15:09;17.40;99.90
47310;DHT22;33046;52.270;6.832;2023-10-19T12:17:15;17.40;99.90
47310;DHT22;33046;52.270;6.832;2023-10-19T12:19:22;17.40;99.90
47310;DHT22;33046;52.270;6.832;2023-10-19T12:21:29;17.40;99.90
47310;DHT22;33046;52.270;6.832;2023-10-19T12:23:36;17.40;99.90
47310;DHT22;33046;52.270;6.832;2023-10-19T12:25:43;17.40;99.90
47310;DHT22;33046;52.270;6.832;2023-10-19T12:28:02;17.40;99.90
47310;DHT22;33046;52.270;6.832;2023-10-19T12:30:11;17.40;99.90
47310;DHT22;33046;52.270;6.832;2023-10-19T12:32:18;17.40;99.90
47310;DHT22;33046;52.270;6.832;2023-10-19T12:34:25;17.40;99.90
47310;DHT22;33046;52.270;6.832;2023-10-19T12:36:31;17.40;99.90
47310;DHT22;33046;52.270;6.832;2023-10-19T12:38:38;17.50;99.90
47310;DHT22;33046;52.270;6.832;2023-10-19T12:40:46;17.50;99.90
47310;DHT22;33046;52.270;6.832;2023-10-19T12:42:53;17.50;99.90
47310;DHT22;33046;52.270;6.832;2023-10-19T12:45:00;17.60;99.90
47310;DHT22;33046;52.270;6.832;2023-10-19T12:47:08;17.70;99.90
47310;DHT22;33046;52.270;6.832;2023-10-19T12:49:15;17.70;99.90
47310;DHT22;33046;52.270;6.832;2023-10-19T12:51:22;17.80;99.90
47310;DHT22;33046;52.270;6.832;2023-10-19T12:53:29;17.90;99.90
47310;DHT22;33046;52.270;6.832;2023-10-19T12:55:36;17.90;99.90
47310;DHT22;33046;52.270;6.832;2023-10-19T12:57:43;17.90;99.90
47310;DHT22;33046;52.270;6.832;2023-10-19T12:59:50;17.90;99.90
47310;DHT22;33046;52.270;6.832;2023-10-19T13:01:57;17.90;99.90
47310;DHT22;33046;52.270;6.832;2023-10-19T13:04:05;18.00;99.90
47310;DHT22;33046;52.270;6.832;2023-10-19T13:06:12;18.00;99.90
47310;DHT22;33046;52.270;6.832;2023-10-19T13:08:20;18.00;99.90
47310;DHT22;33046;52.270;6.832;2023-10-19T13:10:30;18.00;99.90
47310;DHT22;33046;52.270;6.832;2023-10-19T13:12:37;18.00;99.90
47310;DHT22;33046;52.270;6.832;2023-10-19T13:14:44;18.10;99.90
47310;DHT22;33046;52.270;6.832;2023-10-19T13:16:51;18.10;99.90
47310;DHT22;33046;52.270;6.832;2023-10-19T13:18:57;18.10;99.90
47310;DHT22;33046;52.270;6.832;2023-10-19T13:21:06;18.10;99.90
47310;DHT22;33046;52.270;6.832;2023-10-19T13:23:12;18.10;99.90
47310;DHT22;33046;52.270;6.832;2023-10-19T13:25:19;18.10;99.90
47310;DHT22;33046;52.270;6.832;2023-10-19T13:27:26;18.00;99.90
47310;DHT22;33046;52.270;6.832;2023-10-19T13:29:33;18.00;99.90